createdAt,value
2022-09-28T00:00:48.698Z,0
2022-09-28T00:05:50.228Z,0
2022-09-28T00:10:52.421Z,0
2022-09-28T00:16:11.301Z,0
2022-09-28T00:21:12.982Z,0
2022-09-28T00:26:14.996Z,0
2022-09-28T00:31:19.325Z,0.88715
2022-09-28T00:36:21.272Z,0
2022-09-28T00:41:23.043Z,0
2022-09-28T00:46:25.079Z,0
2022-09-28T00:51:26.828Z,0
2022-09-28T00:56:28.599Z,0
2022-09-28T01:01:30.374Z,0
2022-09-28T01:06:32.115Z,0
2022-09-28T01:11:33.909Z,0
2022-09-28T01:16:35.987Z,0
2022-09-28T01:21:37.789Z,0
2022-09-28T01:26:39.512Z,0
2022-09-28T01:31:41.375Z,0
2022-09-28T01:36:43.141Z,0
2022-09-28T01:41:44.945Z,0
2022-09-28T01:46:46.885Z,0
2022-09-28T01:51:48.613Z,0
2022-09-28T01:56:50.430Z,0
2022-09-28T02:01:52.149Z,0
2022-09-28T02:06:53.691Z,0
2022-09-28T02:11:55.107Z,0
2022-09-28T02:16:57.087Z,0
2022-09-28T02:21:58.526Z,0
2022-09-28T02:26:59.981Z,0
2022-09-28T02:32:01.408Z,0
2022-09-28T02:37:02.958Z,0
2022-09-28T02:42:04.531Z,0
2022-09-28T02:47:06.193Z,0
2022-09-28T02:52:07.644Z,0
2022-09-28T02:57:09.109Z,0
2022-09-28T03:02:11.071Z,0
2022-09-28T03:07:12.805Z,0
2022-09-28T03:12:14.472Z,0
2022-09-28T03:17:16.372Z,0.88715
2022-09-28T03:22:17.996Z,0.88715
2022-09-28T03:27:19.773Z,0.88715
2022-09-28T03:32:21.537Z,1.16185
2022-09-28T03:37:23.263Z,0.88885
2022-09-28T03:42:25.015Z,2.01475
2022-09-28T03:47:27.081Z,7.7089
2022-09-28T03:52:28.845Z,11.93225
2022-09-28T03:57:30.613Z,19.03265
2022-09-28T04:02:32.507Z,31.9423
2022-09-28T04:07:34.319Z,45.22085
2022-09-28T04:12:36.043Z,66.079
2022-09-28T04:17:40.212Z,84.00495
2022-09-28T04:22:42.217Z,106.2094
2022-09-28T04:27:44.047Z,132.69235
2022-09-28T04:32:45.790Z,155.8742
2022-09-28T04:37:47.557Z,180.03345
2022-09-28T04:42:49.283Z,199.9142
2022-09-28T04:47:51.336Z,229.93785
2022-09-28T04:52:52.773Z,258.0067
2022-09-28T04:57:54.481Z,280.3956
2022-09-28T05:02:56.083Z,303.5413
2022-09-28T05:07:57.535Z,331.64815
2022-09-28T05:12:58.990Z,348.5054
2022-09-28T05:18:00.826Z,372.8681
2022-09-28T05:23:02.309Z,397.65485
2022-09-28T05:28:03.779Z,425.18935
2022-09-28T05:33:05.446Z,448.8694
2022-09-28T05:38:06.912Z,468.63985
2022-09-28T05:43:08.363Z,495.621
2022-09-28T05:48:10.104Z,510.9285
2022-09-28T05:53:11.538Z,539.2008
2022-09-28T05:58:13.093Z,561.1105
2022-09-28T06:03:14.742Z,580.88095
2022-09-28T06:08:16.236Z,606.0366
2022-09-28T06:13:17.786Z,623.5385
2022-09-28T06:18:19.599Z,641.5386
2022-09-28T06:23:21.169Z,661.30905
2022-09-28T06:28:22.721Z,674.29285
2022-09-28T06:33:24.480Z,695.59405
2022-09-28T06:38:26.220Z,708.5227
2022-09-28T06:43:32.114Z,724.01465
2022-09-28T06:48:36.760Z,728.4966
2022-09-28T06:53:38.267Z,740.2634
2022-09-28T06:58:39.883Z,762.72645
2022-09-28T07:03:41.332Z,762.6903
2022-09-28T07:08:42.784Z,781.11445
2022-09-28T07:13:49.946Z,780.17505
2022-09-28T07:18:52.930Z,794.26555
2022-09-28T07:23:54.637Z,816.91305
2022-09-28T07:28:56.189Z,839.6347
2022-09-28T07:33:57.907Z,844.1908
2022-09-28T07:38:59.446Z,848.5073
2022-09-28T07:44:01.322Z,871.59785
2022-09-28T07:54:13.746Z,894.41265
2022-09-28T07:59:15.512Z,923.92095
2022-09-28T08:04:17.293Z,939.3026
2022-09-28T08:09:19.218Z,964.0342
2022-09-28T08:14:21.047Z,980.707
2022-09-28T08:19:22.879Z,992.8427
2022-09-28T08:24:24.848Z,1023.14395
2022-09-28T08:29:26.574Z,1037.97225
2022-09-28T08:34:28.306Z,1060.25085
2022-09-28T08:39:30.102Z,1078.9336
2022-09-28T08:44:31.914Z,1094.31525
2022-09-28T08:49:33.924Z,1112.92385
2022-09-28T08:54:36.989Z,1137.9692
2022-09-28T08:59:38.742Z,1153.70075
2022-09-28T09:04:40.489Z,1173.011
2022-09-28T09:09:42.293Z,1202.0211
2022-09-28T09:14:44.100Z,1211.15045
2022-09-28T09:19:45.813Z,1239.18315
2022-09-28T09:24:48.149Z,1263.3804
2022-09-28T09:29:49.900Z,1281.67525
2022-09-28T09:34:51.663Z,1314.83455
2022-09-28T09:39:53.392Z,1347.6991
2022-09-28T09:44:54.828Z,1356.58885
2022-09-28T09:49:56.264Z,1382.16855
2022-09-28T09:54:57.936Z,1402.9164
2022-09-28T09:59:59.362Z,1435.41205
2022-09-28T10:05:01.048Z,1449.48355
2022-09-28T10:10:02.786Z,1494.04075
2022-09-28T10:15:04.478Z,1521.07705
2022-09-28T10:20:06.141Z,1562.20385
2022-09-28T10:25:07.918Z,1593.8324
2022-09-28T10:30:09.641Z,1617.01425
2022-09-28T10:35:11.365Z,1636.21235
2022-09-28T10:40:13.112Z,1633.1147
2022-09-28T10:45:14.878Z,1671.161
2022-09-28T10:50:16.687Z,1690.747
2022-09-28T10:55:19.041Z,1668.28395
2022-09-28T11:00:20.823Z,1716.9162
2022-09-28T11:05:22.481Z,1753.69035
2022-09-28T11:10:23.949Z,1775.30345
2022-09-28T11:15:25.400Z,1777.86675
2022-09-28T11:20:28.295Z,1805.677
2022-09-28T11:25:30.248Z,1822.4031
2022-09-28T11:30:31.979Z,1867.58595
2022-09-28T11:35:33.434Z,1859.6736
2022-09-28T11:40:35.361Z,1863.98825
2022-09-28T11:45:37.227Z,1834.60925
2022-09-28T11:50:38.961Z,1864.18985
2022-09-28T11:55:40.924Z,1825.01785
2022-09-28T12:00:42.623Z,1823.2285
2022-09-28T12:05:44.295Z,1824.48165
2022-09-28T12:10:45.856Z,1752.2245
2022-09-28T12:16:17.212Z,1629.82335
2022-09-28T12:21:25.325Z,1622.59365
2022-09-28T12:26:27.729Z,1580.24985
2022-09-28T12:31:29.452Z,1565.5147
2022-09-28T12:36:31.200Z,1466.59015
2022-09-28T12:41:32.975Z,1409.1423
2022-09-28T12:46:34.817Z,1443.26
2022-09-28T12:51:36.753Z,1445.3251
2022-09-28T12:56:39.582Z,1427.4543
2022-09-28T13:01:41.491Z,1447.07645
2022-09-28T13:06:43.250Z,1418.80415
2022-09-28T13:11:44.998Z,1340.86705
2022-09-28T13:16:46.731Z,1306.8958
2022-09-28T13:21:48.476Z,1276.6687
2022-09-28T13:26:50.780Z,1281.97975
2022-09-28T13:31:52.544Z,1305.7701
2022-09-28T13:36:54.284Z,1282.7537
2022-09-28T13:41:55.819Z,1259.42355
2022-09-28T13:46:57.543Z,1226.8176
2022-09-28T13:51:58.995Z,1196.40605
2022-09-28T13:57:01.635Z,1160.1301
2022-09-28T14:02:06.555Z,1171.80375
2022-09-28T14:07:08.713Z,1089.8639
2022-09-28T14:12:10.398Z,1034.86905
2022-09-28T14:17:12.018Z,952.3397
2022-09-28T14:22:13.647Z,892.19925
2022-09-28T14:27:16.519Z,844.784
2022-09-28T14:32:18.218Z,771.30985
2022-09-28T14:37:19.994Z,699.7905
2022-09-28T14:42:21.783Z,649.8671
2022-09-28T14:47:23.516Z,562.3576
2022-09-28T14:52:25.253Z,497.237
2022-09-28T14:57:27.349Z,441.48535
2022-09-28T15:02:29.066Z,386.39735
2022-09-28T15:07:30.786Z,319.5977
2022-09-28T15:12:32.570Z,262.4066
2022-09-28T15:17:39.182Z,215.617
2022-09-28T15:22:41.634Z,176.6466
2022-09-28T15:27:43.600Z,145.82815
2022-09-28T15:32:45.316Z,119.12275
2022-09-28T15:37:47.064Z,96.8803
2022-09-28T15:42:48.838Z,80.39195
2022-09-28T15:47:50.620Z,62.26255
2022-09-28T15:52:52.383Z,42.1232
2022-09-28T15:57:54.331Z,35.55715
2022-09-28T16:02:56.146Z,20.74785
2022-09-28T16:07:57.722Z,15.4178
2022-09-28T16:12:59.197Z,3.67395
2022-09-28T16:18:00.739Z,2.13325
2022-09-28T16:23:02.500Z,0.88885
2022-09-28T16:28:04.205Z,1.16185
2022-09-28T16:33:05.957Z,0.88715
2022-09-28T16:38:07.525Z,0.88715
2022-09-28T16:43:09.145Z,0.88715
2022-09-28T16:48:10.560Z,0
2022-09-28T16:53:12.002Z,0
2022-09-28T16:58:13.817Z,0
2022-09-28T17:03:15.300Z,0
2022-09-28T17:08:17.014Z,0
2022-09-28T17:13:18.530Z,0
2022-09-28T17:18:19.939Z,0
2022-09-28T17:23:21.490Z,0
2022-09-28T17:28:23.339Z,0
2022-09-28T17:33:24.829Z,0
2022-09-28T17:38:26.256Z,0
2022-09-28T17:43:27.741Z,0
2022-09-28T17:48:29.186Z,0
2022-09-28T17:53:30.726Z,0
2022-09-28T17:58:32.546Z,0
2022-09-28T18:03:33.977Z,0
2022-09-28T18:08:35.467Z,0
2022-09-28T18:13:37.043Z,0
2022-09-28T18:18:38.789Z,0
2022-09-28T18:23:40.585Z,0
2022-09-28T18:28:42.584Z,0
2022-09-28T18:33:44.169Z,0
2022-09-28T18:38:45.646Z,0
2022-09-28T18:43:47.205Z,0
2022-09-28T18:48:48.878Z,0
2022-09-28T18:53:50.432Z,0
2022-09-28T18:58:52.199Z,0
2022-09-28T19:03:53.702Z,0
2022-09-28T19:08:55.244Z,0
2022-09-28T19:13:56.760Z,0
2022-09-28T19:18:58.195Z,0
2022-09-28T19:23:59.616Z,0
2022-09-28T19:29:01.358Z,0
2022-09-28T19:34:02.782Z,0
2022-09-28T19:39:04.290Z,0
2022-09-28T19:44:05.848Z,0
2022-09-28T19:49:07.657Z,0
2022-09-28T19:54:09.181Z,0
2022-09-28T19:59:11.127Z,0
2022-09-28T20:04:12.851Z,0
2022-09-28T20:09:14.717Z,0
2022-09-28T20:14:16.475Z,0
2022-09-28T20:19:18.343Z,0
2022-09-28T20:24:19.986Z,0
2022-09-28T20:29:21.716Z,0
2022-09-28T20:34:23.134Z,0
2022-09-28T20:39:24.537Z,0
2022-09-28T20:44:26.324Z,0
2022-09-28T20:49:27.861Z,0
2022-09-28T20:54:29.383Z,0
2022-09-28T20:59:31.120Z,0
2022-09-28T21:04:32.622Z,0
2022-09-28T21:09:34.197Z,0
2022-09-28T21:14:35.866Z,0
2022-09-28T21:19:37.400Z,0
2022-09-28T21:24:39.027Z,0
2022-09-28T21:29:40.975Z,0
2022-09-28T21:34:42.646Z,0.88715
2022-09-28T21:39:45.019Z,0
2022-09-28T21:44:50.948Z,0
2022-09-28T21:49:59.369Z,0
2022-09-28T21:55:00.925Z,0
2022-09-28T22:00:02.545Z,0
2022-09-28T22:05:03.998Z,0
2022-09-28T22:10:05.658Z,0
2022-09-28T22:15:07.414Z,0
2022-09-28T22:20:09.071Z,0
2022-09-28T22:25:10.704Z,0
2022-09-28T22:30:12.588Z,0
2022-09-28T22:35:14.209Z,0.88715
2022-09-28T22:40:15.831Z,0
2022-09-28T22:45:17.715Z,0
2022-09-28T22:50:19.416Z,0
2022-09-28T22:55:21.153Z,0
2022-09-28T23:00:23.335Z,0
2022-09-28T23:05:25.110Z,0
2022-09-28T23:10:26.932Z,0
2022-09-28T23:15:28.652Z,0
2022-09-28T23:20:30.382Z,0
2022-09-28T23:25:32.168Z,0
2022-09-28T23:30:34.122Z,0
2022-09-28T23:35:35.852Z,0
2022-09-28T23:40:37.704Z,0
2022-09-28T23:45:39.534Z,0
2022-09-28T23:50:41.336Z,0
2022-09-28T23:55:43.090Z,0.88715
